Time,TemperatureF,DewpointF,PressureIn,WindDirection,WindDirectionDegrees,WindSpeedMPH,WindSpeedGustMPH,Humidity,HourlyPrecipIn,Conditions,Clouds,dailyrainin,SoftwareType,DateUTC
2013-08-02 00:01:00,72.5,69.4,29.66,North,-999,-999.0,-999.0,90,-99.99,,,-99.99,meteohub,2013-08-02 04:01:00,
2013-08-02 00:02:00,72.5,69.4,29.66,North,-999,-999.0,-999.0,90,-99.99,,,-99.99,meteohub,2013-08-02 04:02:00,
2013-08-02 00:03:00,72.5,69.4,29.66,North,-999,-999.0,-999.0,90,-99.99,,,-99.99,meteohub,2013-08-02 04:03:00,
2013-08-02 00:04:00,72.5,69.4,29.66,North,-999,-999.0,-999.0,90,-99.99,,,-99.99,meteohub,2013-08-02 04:04:00,
2013-08-02 00:09:00,72.5,69.8,29.66,North,-999,-999.0,-999.0,91,-99.99,,,-99.99,meteohub,2013-08-02 04:09:00,
2013-08-02 00:15:00,72.5,69.8,29.66,North,-999,-999.0,-999.0,91,-99.99,,,-99.99,meteohub,2013-08-02 04:15:00,
2013-08-02 00:18:00,72.7,70.0,29.66,North,-999,-999.0,-999.0,91,-99.99,,,-99.99,meteohub,2013-08-02 04:18:00,
2013-08-02 00:24:00,72.9,70.2,29.66,North,-999,-999.0,-999.0,91,-99.99,,,-99.99,meteohub,2013-08-02 04:24:00,
2013-08-02 00:29:00,73.0,70.3,29.66,North,-999,-999.0,-999.0,91,-99.99,,,-99.99,meteohub,2013-08-02 04:29:00,
2013-08-02 00:34:00,73.0,70.3,29.66,North,-999,-999.0,-999.0,91,-99.99,,,-99.99,meteohub,2013-08-02 04:34:00,
2013-08-02 00:39:00,73.0,70.3,29.66,North,-999,-999.0,-999.0,91,-99.99,,,-99.99,meteohub,2013-08-02 04:39:00,
2013-08-02 00:44:00,73.0,70.0,29.66,North,-999,-999.0,-999.0,90,-99.99,,,-99.99,meteohub,2013-08-02 04:44:00,
2013-08-02 00:49:00,73.0,70.0,29.66,North,-999,-999.0,-999.0,90,-99.99,,,-99.99,meteohub,2013-08-02 04:49:00,
2013-08-02 00:54:00,73.0,69.6,29.66,North,-999,-999.0,-999.0,89,-99.99,,,-99.99,meteohub,2013-08-02 04:54:00,
2013-08-02 00:59:00,72.9,69.1,29.66,North,-999,-999.0,-999.0,88,-99.99,,,-99.99,meteohub,2013-08-02 04:59:00,
2013-08-02 01:05:00,72.7,68.5,29.66,North,-999,-999.0,-999.0,87,-99.99,,,-99.99,meteohub,2013-08-02 05:05:00,
2013-08-02 01:10:00,72.5,68.4,29.66,North,-999,-999.0,-999.0,87,-99.99,,,-99.99,meteohub,2013-08-02 05:10:00,
2013-08-02 01:15:00,72.5,68.4,29.66,North,-999,-999.0,-999.0,87,-99.99,,,-99.99,meteohub,2013-08-02 05:15:00,
2013-08-02 01:20:00,72.3,68.2,29.63,North,-999,-999.0,-999.0,87,-99.99,,,-99.99,meteohub,2013-08-02 05:20:00,
2013-08-02 01:25:00,72.3,68.2,29.63,North,-999,-999.0,-999.0,87,-99.99,,,-99.99,meteohub,2013-08-02 05:25:00,
2013-08-02 01:30:00,72.3,68.2,29.63,North,-999,-999.0,-999.0,87,-99.99,,,-99.99,meteohub,2013-08-02 05:30:00,
2013-08-02 01:35:00,72.1,68.0,29.63,North,-999,-999.0,-999.0,87,-99.99,,,-99.99,meteohub,2013-08-02 05:35:00,
2013-08-02 01:41:00,72.1,68.4,29.63,North,-999,-999.0,-999.0,88,-99.99,,,-99.99,meteohub,2013-08-02 05:41:00,
2013-08-02 01:46:00,72.0,68.2,29.63,North,-999,-999.0,-999.0,88,-99.99,,,-99.99,meteohub,2013-08-02 05:46:00,
2013-08-02 01:52:00,72.0,68.2,29.66,North,-999,-999.0,-999.0,88,-99.99,,,-99.99,meteohub,2013-08-02 05:52:00,
2013-08-02 01:57:00,71.8,68.0,29.66,North,-999,-999.0,-999.0,88,-99.99,,,-99.99,meteohub,2013-08-02 05:57:00,
2013-08-02 02:02:00,71.6,67.8,29.66,North,-999,-999.0,-999.0,88,-99.99,,,-99.99,meteohub,2013-08-02 06:02:00,
2013-08-02 02:07:00,71.4,67.6,29.66,North,-999,-999.0,-999.0,88,-99.99,,,-99.99,meteohub,2013-08-02 06:07:00,
2013-08-02 02:12:00,71.2,67.1,29.66,North,-999,-999.0,-999.0,87,-99.99,,,-99.99,meteohub,2013-08-02 06:12:00,
2013-08-02 02:17:00,71.1,66.9,29.66,North,-999,-999.0,-999.0,87,-99.99,,,-99.99,meteohub,2013-08-02 06:17:00,
2013-08-02 02:22:00,70.7,66.6,29.66,North,-999,-999.0,-999.0,87,-99.99,,,-99.99,meteohub,2013-08-02 06:22:00,
2013-08-02 02:27:00,70.5,66.7,29.66,North,-999,-999.0,-999.0,88,-99.99,,,-99.99,meteohub,2013-08-02 06:27:00,
2013-08-02 02:32:00,70.2,66.4,29.66,North,-999,-999.0,-999.0,88,-99.99,,,-99.99,meteohub,2013-08-02 06:32:00,
2013-08-02 02:38:00,69.8,66.4,29.66,North,-999,-999.0,-999.0,89,-99.99,,,-99.99,meteohub,2013-08-02 06:38:00,
2013-08-02 02:43:00,69.8,66.4,29.66,North,-999,-999.0,-999.0,89,-99.99,,,-99.99,meteohub,2013-08-02 06:43:00,
2013-08-02 02:48:00,69.8,66.7,29.66,North,-999,-999.0,-999.0,90,-99.99,,,-99.99,meteohub,2013-08-02 06:48:00,
2013-08-02 02:53:00,69.6,66.6,29.63,North,-999,-999.0,-999.0,90,-99.99,,,-99.99,meteohub,2013-08-02 06:53:00,
2013-08-02 02:58:00,69.6,66.9,29.63,North,-999,-999.0,-999.0,91,-99.99,,,-99.99,meteohub,2013-08-02 06:58:00,
2013-08-02 03:03:00,69.6,66.9,29.63,North,-999,-999.0,-999.0,91,-99.99,,,-99.99,meteohub,2013-08-02 07:03:00,
2013-08-02 03:09:00,69.6,66.9,29.63,North,-999,-999.0,-999.0,91,-99.99,,,-99.99,meteohub,2013-08-02 07:09:00,
2013-08-02 03:14:00,69.4,66.7,29.63,North,-999,-999.0,-999.0,91,-99.99,,,-99.99,meteohub,2013-08-02 07:14:00,
2013-08-02 03:19:00,69.3,66.6,29.63,North,-999,-999.0,-999.0,91,-99.99,,,-99.99,meteohub,2013-08-02 07:19:00,
2013-08-02 03:24:00,69.3,66.9,29.63,North,-999,-999.0,-999.0,92,-99.99,,,-99.99,meteohub,2013-08-02 07:24:00,
2013-08-02 03:29:00,69.3,66.9,29.63,North,-999,-999.0,-999.0,92,-99.99,,,-99.99,meteohub,2013-08-02 07:29:00,
2013-08-02 03:34:00,69.1,66.7,29.63,North,-999,-999.0,-999.0,92,-99.99,,,-99.99,meteohub,2013-08-02 07:34:00,
2013-08-02 03:40:00,69.1,66.7,29.63,North,-999,-999.0,-999.0,92,-99.99,,,-99.99,meteohub,2013-08-02 07:40:00,
2013-08-02 03:45:00,69.1,66.7,29.63,North,-999,-999.0,-999.0,92,-99.99,,,-99.99,meteohub,2013-08-02 07:45:00,
2013-08-02 03:50:00,69.1,66.7,29.63,North,-999,-999.0,-999.0,92,-99.99,,,-99.99,meteohub,2013-08-02 07:50:00,
2013-08-02 03:55:00,69.1,66.7,29.63,North,-999,-999.0,-999.0,92,-99.99,,,-99.99,meteohub,2013-08-02 07:55:00,
2013-08-02 04:00:00,69.1,66.7,29.63,North,-999,-999.0,-999.0,92,-99.99,,,-99.99,meteohub,2013-08-02 08:00:00,
2013-08-02 04:05:00,68.9,66.6,29.63,North,-999,-999.0,-999.0,92,-99.99,,,-99.99,meteohub,2013-08-02 08:05:00,
2013-08-02 04:11:00,68.9,66.7,29.63,North,-999,-999.0,-999.0,93,-99.99,,,-99.99,meteohub,2013-08-02 08:11:00,
2013-08-02 04:16:00,68.9,66.7,29.63,North,-999,-999.0,-999.0,93,-99.99,,,-99.99,meteohub,2013-08-02 08:16:00,
2013-08-02 04:21:00,68.9,66.7,29.63,North,-999,-999.0,-999.0,93,-99.99,,,-99.99,meteohub,2013-08-02 08:21:00,
2013-08-02 04:26:00,69.1,66.9,29.63,North,-999,-999.0,-999.0,93,-99.99,,,-99.99,meteohub,2013-08-02 08:26:00,
2013-08-02 04:31:00,69.1,66.9,29.63,North,-999,-999.0,-999.0,93,-99.99,,,-99.99,meteohub,2013-08-02 08:31:00,
2013-08-02 04:37:00,68.9,66.7,29.63,North,-999,-999.0,-999.0,93,-99.99,,,-99.99,meteohub,2013-08-02 08:37:00,
2013-08-02 04:42:00,68.9,66.7,29.63,North,-999,-999.0,-999.0,93,-99.99,,,-99.99,meteohub,2013-08-02 08:42:00,
2013-08-02 04:47:00,68.9,66.7,29.63,North,-999,-999.0,-999.0,93,-99.99,,,-99.99,meteohub,2013-08-02 08:47:00,
2013-08-02 04:52:00,68.9,66.7,29.63,North,-999,-999.0,-999.0,93,-99.99,,,-99.99,meteohub,2013-08-02 08:52:00,
2013-08-02 04:57:00,68.7,66.6,29.63,North,-999,-999.0,-999.0,93,-99.99,,,-99.99,meteohub,2013-08-02 08:57:00,
2013-08-02 05:02:00,68.7,66.6,29.63,North,-999,-999.0,-999.0,93,-99.99,,,-99.99,meteohub,2013-08-02 09:02:00,
2013-08-02 05:07:00,68.7,66.6,29.63,North,-999,-999.0,-999.0,93,-99.99,,,-99.99,meteohub,2013-08-02 09:07:00,
2013-08-02 05:12:00,68.5,66.4,29.63,North,-999,-999.0,-999.0,93,-99.99,,,-99.99,meteohub,2013-08-02 09:12:00,
2013-08-02 05:17:00,68.5,66.4,29.63,North,-999,-999.0,-999.0,93,-99.99,,,-99.99,meteohub,2013-08-02 09:17:00,
2013-08-02 05:23:00,68.5,66.4,29.63,North,-999,-999.0,-999.0,93,-99.99,,,-99.99,meteohub,2013-08-02 09:23:00,
2013-08-02 05:28:00,68.5,66.4,29.63,North,-999,-999.0,-999.0,93,-99.99,,,-99.99,meteohub,2013-08-02 09:28:00,
2013-08-02 05:33:00,68.4,66.2,29.63,North,-999,-999.0,-999.0,93,-99.99,,,-99.99,meteohub,2013-08-02 09:33:00,
2013-08-02 05:38:00,68.4,66.2,29.63,North,-999,-999.0,-999.0,93,-99.99,,,-99.99,meteohub,2013-08-02 09:38:00,
2013-08-02 05:43:00,68.4,66.2,29.63,North,-999,-999.0,-999.0,93,-99.99,,,-99.99,meteohub,2013-08-02 09:43:00,
2013-08-02 05:48:00,68.2,66.0,29.66,North,-999,-999.0,-999.0,93,-99.99,,,-99.99,meteohub,2013-08-02 09:48:00,
2013-08-02 05:54:00,68.2,66.0,29.66,North,-999,-999.0,-999.0,93,-99.99,,,-99.99,meteohub,2013-08-02 09:54:00,
2013-08-02 05:59:00,68.2,66.0,29.66,North,-999,-999.0,-999.0,93,-99.99,,,-99.99,meteohub,2013-08-02 09:59:00,
2013-08-02 06:04:00,68.0,65.8,29.66,North,-999,-999.0,-999.0,93,-99.99,,,-99.99,meteohub,2013-08-02 10:04:00,
2013-08-02 06:09:00,68.2,66.0,29.66,North,-999,-999.0,-999.0,93,-99.99,,,-99.99,meteohub,2013-08-02 10:09:00,
2013-08-02 06:14:00,68.0,65.8,29.66,North,-999,-999.0,-999.0,93,-99.99,,,-99.99,meteohub,2013-08-02 10:14:00,
2013-08-02 06:19:00,68.0,65.8,29.66,North,-999,-999.0,-999.0,93,-99.99,,,-99.99,meteohub,2013-08-02 10:19:00,
2013-08-02 06:24:00,68.0,65.8,29.66,North,-999,-999.0,-999.0,93,-99.99,,,-99.99,meteohub,2013-08-02 10:24:00,
2013-08-02 06:30:00,67.8,65.7,29.66,North,-999,-999.0,-999.0,93,-99.99,,,-99.99,meteohub,2013-08-02 10:30:00,
2013-08-02 06:35:00,67.8,65.7,29.66,North,-999,-999.0,-999.0,93,-99.99,,,-99.99,meteohub,2013-08-02 10:35:00,
2013-08-02 06:40:00,67.8,66.0,29.66,North,-999,-999.0,-999.0,94,-99.99,,,-99.99,meteohub,2013-08-02 10:40:00,
2013-08-02 06:47:00,67.8,66.0,29.66,North,-999,-999.0,-999.0,94,-99.99,,,-99.99,meteohub,2013-08-02 10:47:00,
2013-08-02 06:52:00,67.8,66.0,29.66,North,-999,-999.0,-999.0,94,-99.99,,,-99.99,meteohub,2013-08-02 10:52:00,
2013-08-02 06:57:00,67.8,66.0,29.66,North,-999,-999.0,-999.0,94,-99.99,,,-99.99,meteohub,2013-08-02 10:57:00,
2013-08-02 07:02:00,68.0,66.2,29.66,North,-999,-999.0,-999.0,94,-99.99,,,-99.99,meteohub,2013-08-02 11:02:00,
2013-08-02 07:08:00,68.0,66.2,29.66,North,-999,-999.0,-999.0,94,-99.99,,,-99.99,meteohub,2013-08-02 11:08:00,
2013-08-02 07:13:00,68.0,66.2,29.66,North,-999,-999.0,-999.0,94,-99.99,,,-99.99,meteohub,2013-08-02 11:13:00,
2013-08-02 07:18:00,68.2,66.4,29.66,North,-999,-999.0,-999.0,94,-99.99,,,-99.99,meteohub,2013-08-02 11:18:00,
2013-08-02 07:23:00,68.2,66.4,29.66,North,-999,-999.0,-999.0,94,-99.99,,,-99.99,meteohub,2013-08-02 11:23:00,
2013-08-02 07:29:00,68.4,66.6,29.66,North,-999,-999.0,-999.0,94,-99.99,,,-99.99,meteohub,2013-08-02 11:29:00,
2013-08-02 07:34:00,68.5,66.7,29.69,North,-999,-999.0,-999.0,94,-99.99,,,-99.99,meteohub,2013-08-02 11:34:00,
2013-08-02 07:39:00,68.7,67.3,29.69,North,-999,-999.0,-999.0,95,-99.99,,,-99.99,meteohub,2013-08-02 11:39:00,
2013-08-02 07:44:00,68.9,67.5,29.69,North,-999,-999.0,-999.0,95,-99.99,,,-99.99,meteohub,2013-08-02 11:44:00,
2013-08-02 07:49:00,68.9,67.5,29.69,North,-999,-999.0,-999.0,95,-99.99,,,-99.99,meteohub,2013-08-02 11:49:00,
2013-08-02 07:55:00,69.1,67.6,29.69,North,-999,-999.0,-999.0,95,-99.99,,,-99.99,meteohub,2013-08-02 11:55:00,
2013-08-02 08:00:00,69.3,67.8,29.69,North,-999,-999.0,-999.0,95,-99.99,,,-99.99,meteohub,2013-08-02 12:00:00,
2013-08-02 08:05:00,69.4,68.0,29.69,North,-999,-999.0,-999.0,95,-99.99,,,-99.99,meteohub,2013-08-02 12:05:00,
2013-08-02 08:10:00,69.4,68.0,29.69,North,-999,-999.0,-999.0,95,-99.99,,,-99.99,meteohub,2013-08-02 12:10:00,
2013-08-02 08:15:00,69.8,68.0,29.69,North,-999,-999.0,-999.0,94,-99.99,,,-99.99,meteohub,2013-08-02 12:15:00,
2013-08-02 08:20:00,70.0,68.5,29.72,North,-999,-999.0,-999.0,95,-99.99,,,-99.99,meteohub,2013-08-02 12:20:00,
2013-08-02 08:25:00,70.2,68.7,29.72,North,-999,-999.0,-999.0,95,-99.99,,,-99.99,meteohub,2013-08-02 12:25:00,
2013-08-02 08:30:00,70.3,68.9,29.72,North,-999,-999.0,-999.0,95,-99.99,,,-99.99,meteohub,2013-08-02 12:30:00,
2013-08-02 08:36:00,70.5,69.1,29.72,North,-999,-999.0,-999.0,95,-99.99,,,-99.99,meteohub,2013-08-02 12:36:00,
2013-08-02 08:41:00,70.5,68.7,29.72,North,-999,-999.0,-999.0,94,-99.99,,,-99.99,meteohub,2013-08-02 12:41:00,
2013-08-02 08:46:00,70.7,68.9,29.72,North,-999,-999.0,-999.0,94,-99.99,,,-99.99,meteohub,2013-08-02 12:46:00,
2013-08-02 08:52:00,70.9,69.1,29.72,North,-999,-999.0,-999.0,94,-99.99,,,-99.99,meteohub,2013-08-02 12:52:00,
2013-08-02 08:57:00,71.1,69.3,29.72,North,-999,-999.0,-999.0,94,-99.99,,,-99.99,meteohub,2013-08-02 12:57:00,
2013-08-02 09:02:00,71.2,69.4,29.72,North,-999,-999.0,-999.0,94,-99.99,,,-99.99,meteohub,2013-08-02 13:02:00,
2013-08-02 09:07:00,71.4,69.6,29.72,North,-999,-999.0,-999.0,94,-99.99,,,-99.99,meteohub,2013-08-02 13:07:00,
2013-08-02 09:12:00,71.8,70.0,29.72,North,-999,-999.0,-999.0,94,-99.99,,,-99.99,meteohub,2013-08-02 13:12:00,
2013-08-02 09:17:00,72.0,70.2,29.72,North,-999,-999.0,-999.0,94,-99.99,,,-99.99,meteohub,2013-08-02 13:17:00,
2013-08-02 09:22:00,72.1,70.3,29.72,North,-999,-999.0,-999.0,94,-99.99,,,-99.99,meteohub,2013-08-02 13:22:00,
2013-08-02 09:28:00,72.3,70.2,29.72,North,-999,-999.0,-999.0,93,-99.99,,,-99.99,meteohub,2013-08-02 13:28:00,
2013-08-02 09:33:00,72.5,70.3,29.72,North,-999,-999.0,-999.0,93,-99.99,,,-99.99,meteohub,2013-08-02 13:33:00,
2013-08-02 09:38:00,73.0,70.5,29.72,North,-999,-999.0,-999.0,92,-99.99,,,-99.99,meteohub,2013-08-02 13:38:00,
2013-08-02 09:43:00,73.2,70.5,29.72,North,-999,-999.0,-999.0,91,-99.99,,,-99.99,meteohub,2013-08-02 13:43:00,
2013-08-02 09:48:00,73.6,70.5,29.72,North,-999,-999.0,-999.0,90,-99.99,,,-99.99,meteohub,2013-08-02 13:48:00,
2013-08-02 09:53:00,73.9,70.5,29.72,North,-999,-999.0,-999.0,89,-99.99,,,-99.99,meteohub,2013-08-02 13:53:00,
2013-08-02 09:59:00,74.1,70.7,29.72,North,-999,-999.0,-999.0,89,-99.99,,,-99.99,meteohub,2013-08-02 13:59:00,
2013-08-02 10:04:00,74.7,70.5,29.72,North,-999,-999.0,-999.0,87,-99.99,,,-99.99,meteohub,2013-08-02 14:04:00,
2013-08-02 10:09:00,74.7,70.2,29.72,North,-999,-999.0,-999.0,86,-99.99,,,-99.99,meteohub,2013-08-02 14:09:00,
2013-08-02 10:14:00,74.5,69.3,29.72,North,-999,-999.0,-999.0,84,-99.99,,,-99.99,meteohub,2013-08-02 14:14:00,
2013-08-02 10:19:00,74.7,69.4,29.72,North,-999,-999.0,-999.0,84,-99.99,,,-99.99,meteohub,2013-08-02 14:19:00,
2013-08-02 10:24:00,74.7,69.1,29.72,North,-999,-999.0,-999.0,83,-99.99,,,-99.99,meteohub,2013-08-02 14:24:00,
2013-08-02 10:29:00,75.0,69.4,29.72,North,-999,-999.0,-999.0,83,-99.99,,,-99.99,meteohub,2013-08-02 14:29:00,
2013-08-02 10:35:00,75.6,68.9,29.72,North,-999,-999.0,-999.0,80,-99.99,,,-99.99,meteohub,2013-08-02 14:35:00,
2013-08-02 10:40:00,75.6,68.9,29.72,North,-999,-999.0,-999.0,80,-99.99,,,-99.99,meteohub,2013-08-02 14:40:00,
2013-08-02 10:45:00,75.9,69.3,29.72,North,-999,-999.0,-999.0,80,-99.99,,,-99.99,meteohub,2013-08-02 14:45:00,
2013-08-02 10:50:00,75.9,68.9,29.72,North,-999,-999.0,-999.0,79,-99.99,,,-99.99,meteohub,2013-08-02 14:50:00,
2013-08-02 10:56:00,76.1,69.1,29.72,North,-999,-999.0,-999.0,79,-99.99,,,-99.99,meteohub,2013-08-02 14:56:00,
2013-08-02 11:01:00,76.5,69.1,29.72,North,-999,-999.0,-999.0,78,-99.99,,,-99.99,meteohub,2013-08-02 15:01:00,
2013-08-02 11:06:00,76.6,68.9,29.72,North,-999,-999.0,-999.0,77,-99.99,,,-99.99,meteohub,2013-08-02 15:06:00,
2013-08-02 11:11:00,77.0,68.9,29.72,North,-999,-999.0,-999.0,76,-99.99,,,-99.99,meteohub,2013-08-02 15:11:00,
2013-08-02 11:16:00,77.4,68.9,29.72,North,-999,-999.0,-999.0,75,-99.99,,,-99.99,meteohub,2013-08-02 15:16:00,
2013-08-02 11:22:00,77.9,69.3,29.72,North,-999,-999.0,-999.0,75,-99.99,,,-99.99,meteohub,2013-08-02 15:22:00,
2013-08-02 11:27:00,78.4,67.8,29.72,North,-999,-999.0,-999.0,70,-99.99,,,-99.99,meteohub,2013-08-02 15:27:00,
2013-08-02 11:32:00,78.8,69.1,29.72,North,-999,-999.0,-999.0,72,-99.99,,,-99.99,meteohub,2013-08-02 15:32:00,
2013-08-02 11:37:00,79.3,68.4,29.75,North,-999,-999.0,-999.0,69,-99.99,,,-99.99,meteohub,2013-08-02 15:37:00,
2013-08-02 11:42:00,79.9,68.7,29.75,North,-999,-999.0,-999.0,69,-99.99,,,-99.99,meteohub,2013-08-02 15:42:00,
2013-08-02 11:47:00,80.4,69.3,29.75,North,-999,-999.0,-999.0,69,-99.99,,,-99.99,meteohub,2013-08-02 15:47:00,
2013-08-02 11:53:00,81.0,68.5,29.75,North,-999,-999.0,-999.0,66,-99.99,,,-99.99,meteohub,2013-08-02 15:53:00,
2013-08-02 11:58:00,81.7,69.3,29.75,North,-999,-999.0,-999.0,66,-99.99,,,-99.99,meteohub,2013-08-02 15:58:00,
2013-08-02 12:03:00,82.0,69.6,29.75,North,-999,-999.0,-999.0,66,-99.99,,,-99.99,meteohub,2013-08-02 16:03:00,
2013-08-02 12:08:00,82.6,69.1,29.72,North,-999,-999.0,-999.0,64,-99.99,,,-99.99,meteohub,2013-08-02 16:08:00,
2013-08-02 12:13:00,82.9,69.4,29.72,North,-999,-999.0,-999.0,64,-99.99,,,-99.99,meteohub,2013-08-02 16:13:00,
2013-08-02 12:18:00,83.5,68.5,29.75,North,-999,-999.0,-999.0,61,-99.99,,,-99.99,meteohub,2013-08-02 16:18:00,
2013-08-02 12:23:00,83.8,68.9,29.75,North,-999,-999.0,-999.0,61,-99.99,,,-99.99,meteohub,2013-08-02 16:23:00,
2013-08-02 12:29:00,83.7,68.7,29.75,North,-999,-999.0,-999.0,61,-99.99,,,-99.99,meteohub,2013-08-02 16:29:00,
2013-08-02 12:34:00,84.0,69.1,29.75,North,-999,-999.0,-999.0,61,-99.99,,,-99.99,meteohub,2013-08-02 16:34:00,
2013-08-02 12:39:00,83.7,68.4,29.75,North,-999,-999.0,-999.0,60,-99.99,,,-99.99,meteohub,2013-08-02 16:39:00,
2013-08-02 12:44:00,83.1,67.8,29.75,North,-999,-999.0,-999.0,60,-99.99,,,-99.99,meteohub,2013-08-02 16:44:00,
2013-08-02 12:49:00,83.8,68.5,29.75,North,-999,-999.0,-999.0,60,-99.99,,,-99.99,meteohub,2013-08-02 16:49:00,
2013-08-02 12:54:00,84.4,68.0,29.75,North,-999,-999.0,-999.0,58,-99.99,,,-99.99,meteohub,2013-08-02 16:54:00,
2013-08-02 13:00:00,84.7,68.9,29.75,North,-999,-999.0,-999.0,59,-99.99,,,-99.99,meteohub,2013-08-02 17:00:00,
2013-08-02 13:05:00,84.9,68.5,29.75,North,-999,-999.0,-999.0,58,-99.99,,,-99.99,meteohub,2013-08-02 17:05:00,
2013-08-02 13:10:00,84.9,68.9,29.75,North,-999,-999.0,-999.0,59,-99.99,,,-99.99,meteohub,2013-08-02 17:10:00,
2013-08-02 13:15:00,84.6,67.1,29.75,North,-999,-999.0,-999.0,56,-99.99,,,-99.99,meteohub,2013-08-02 17:15:00,
2013-08-02 13:20:00,83.8,66.9,29.75,North,-999,-999.0,-999.0,57,-99.99,,,-99.99,meteohub,2013-08-02 17:20:00,
2013-08-02 13:25:00,84.4,67.5,29.75,North,-999,-999.0,-999.0,57,-99.99,,,-99.99,meteohub,2013-08-02 17:25:00,
2013-08-02 13:31:00,84.2,67.3,29.75,North,-999,-999.0,-999.0,57,-99.99,,,-99.99,meteohub,2013-08-02 17:31:00,
2013-08-02 13:36:00,84.6,66.6,29.75,North,-999,-999.0,-999.0,55,-99.99,,,-99.99,meteohub,2013-08-02 17:36:00,
2013-08-02 13:41:00,85.1,68.7,29.75,North,-999,-999.0,-999.0,58,-99.99,,,-99.99,meteohub,2013-08-02 17:41:00,
2013-08-02 13:46:00,84.4,67.5,29.75,North,-999,-999.0,-999.0,57,-99.99,,,-99.99,meteohub,2013-08-02 17:46:00,
2013-08-02 13:51:00,83.8,66.9,29.75,North,-999,-999.0,-999.0,57,-99.99,,,-99.99,meteohub,2013-08-02 17:51:00,
2013-08-02 13:57:00,84.0,67.6,29.75,North,-999,-999.0,-999.0,58,-99.99,,,-99.99,meteohub,2013-08-02 17:57:00,
2013-08-02 14:02:00,83.7,67.3,29.75,North,-999,-999.0,-999.0,58,-99.99,,,-99.99,meteohub,2013-08-02 18:02:00,
2013-08-02 14:07:00,83.7,67.3,29.72,North,-999,-999.0,-999.0,58,-99.99,,,-99.99,meteohub,2013-08-02 18:07:00,
2013-08-02 14:11:00,83.1,66.7,29.72,North,-999,-999.0,-999.0,58,-99.99,,,-99.99,meteohub,2013-08-02 18:11:00,
2013-08-02 14:17:00,82.8,66.4,29.72,North,-999,-999.0,-999.0,58,-99.99,,,-99.99,meteohub,2013-08-02 18:17:00,
2013-08-02 14:22:00,82.6,66.7,29.75,North,-999,-999.0,-999.0,59,-99.99,,,-99.99,meteohub,2013-08-02 18:22:00,
2013-08-02 14:27:00,82.4,67.1,29.75,North,-999,-999.0,-999.0,60,-99.99,,,-99.99,meteohub,2013-08-02 18:27:00,
2013-08-02 14:31:00,82.9,68.2,29.75,North,-999,-999.0,-999.0,61,-99.99,,,-99.99,meteohub,2013-08-02 18:31:00,
2013-08-02 14:37:00,83.3,68.4,29.72,North,-999,-999.0,-999.0,61,-99.99,,,-99.99,meteohub,2013-08-02 18:37:00,
2013-08-02 14:42:00,84.2,69.3,29.72,North,-999,-999.0,-999.0,61,-99.99,,,-99.99,meteohub,2013-08-02 18:42:00,
2013-08-02 14:47:00,85.1,69.6,29.72,North,-999,-999.0,-999.0,60,-99.99,,,-99.99,meteohub,2013-08-02 18:47:00,
2013-08-02 14:52:00,85.1,68.7,29.72,North,-999,-999.0,-999.0,58,-99.99,,,-99.99,meteohub,2013-08-02 18:52:00,
2013-08-02 14:57:00,85.1,68.7,29.72,North,-999,-999.0,-999.0,58,-99.99,,,-99.99,meteohub,2013-08-02 18:57:00,
2013-08-02 15:02:00,84.4,67.5,29.72,North,-999,-999.0,-999.0,57,-99.99,,,-99.99,meteohub,2013-08-02 19:02:00,
2013-08-02 15:07:00,84.2,67.3,29.72,North,-999,-999.0,-999.0,57,-99.99,,,-99.99,meteohub,2013-08-02 19:07:00,
2013-08-02 15:12:00,84.2,67.3,29.72,North,-999,-999.0,-999.0,57,-99.99,,,-99.99,meteohub,2013-08-02 19:12:00,
2013-08-02 15:18:00,83.8,67.5,29.72,North,-999,-999.0,-999.0,58,-99.99,,,-99.99,meteohub,2013-08-02 19:18:00,
2013-08-02 15:23:00,84.4,68.0,29.72,North,-999,-999.0,-999.0,58,-99.99,,,-99.99,meteohub,2013-08-02 19:23:00,
2013-08-02 15:28:00,84.9,68.9,29.72,North,-999,-999.0,-999.0,59,-99.99,,,-99.99,meteohub,2013-08-02 19:28:00,
2013-08-02 15:33:00,86.0,68.9,29.72,North,-999,-999.0,-999.0,57,-99.99,,,-99.99,meteohub,2013-08-02 19:33:00,
2013-08-02 15:38:00,86.5,70.0,29.72,North,-999,-999.0,-999.0,58,-99.99,,,-99.99,meteohub,2013-08-02 19:38:00,
2013-08-02 15:43:00,86.7,68.5,29.72,North,-999,-999.0,-999.0,55,-99.99,,,-99.99,meteohub,2013-08-02 19:43:00,
2013-08-02 15:49:00,86.5,68.4,29.72,North,-999,-999.0,-999.0,55,-99.99,,,-99.99,meteohub,2013-08-02 19:49:00,
2013-08-02 15:54:00,86.7,66.9,29.72,North,-999,-999.0,-999.0,52,-99.99,,,-99.99,meteohub,2013-08-02 19:54:00,
2013-08-02 15:59:00,86.5,67.3,29.72,North,-999,-999.0,-999.0,53,-99.99,,,-99.99,meteohub,2013-08-02 19:59:00,
2013-08-02 16:04:00,86.9,67.1,29.72,North,-999,-999.0,-999.0,52,-99.99,,,-99.99,meteohub,2013-08-02 20:04:00,
2013-08-02 16:09:00,86.5,68.4,29.72,North,-999,-999.0,-999.0,55,-99.99,,,-99.99,meteohub,2013-08-02 20:09:00,
2013-08-02 16:15:00,85.8,67.3,29.72,North,-999,-999.0,-999.0,54,-99.99,,,-99.99,meteohub,2013-08-02 20:15:00,
2013-08-02 16:20:00,85.8,67.3,29.72,North,-999,-999.0,-999.0,54,-99.99,,,-99.99,meteohub,2013-08-02 20:20:00,
2013-08-02 16:25:00,86.2,67.6,29.72,North,-999,-999.0,-999.0,54,-99.99,,,-99.99,meteohub,2013-08-02 20:25:00,
2013-08-02 16:30:00,86.2,66.6,29.72,North,-999,-999.0,-999.0,52,-99.99,,,-99.99,meteohub,2013-08-02 20:30:00,
2013-08-02 16:35:00,86.0,65.8,29.72,North,-999,-999.0,-999.0,51,-99.99,,,-99.99,meteohub,2013-08-02 20:35:00,
2013-08-02 16:40:00,86.0,66.4,29.72,North,-999,-999.0,-999.0,52,-99.99,,,-99.99,meteohub,2013-08-02 20:40:00,
2013-08-02 16:45:00,85.8,66.2,29.72,North,-999,-999.0,-999.0,52,-99.99,,,-99.99,meteohub,2013-08-02 20:45:00,
2013-08-02 16:51:00,85.8,66.2,29.72,North,-999,-999.0,-999.0,52,-99.99,,,-99.99,meteohub,2013-08-02 20:51:00,
2013-08-02 16:56:00,86.0,65.1,29.72,North,-999,-999.0,-999.0,50,-99.99,,,-99.99,meteohub,2013-08-02 20:56:00,
2013-08-02 17:01:00,86.0,65.8,29.72,North,-999,-999.0,-999.0,51,-99.99,,,-99.99,meteohub,2013-08-02 21:01:00,
2013-08-02 17:06:00,85.6,65.5,29.72,North,-999,-999.0,-999.0,51,-99.99,,,-99.99,meteohub,2013-08-02 21:06:00,
2013-08-02 17:11:00,85.3,65.1,29.72,North,-999,-999.0,-999.0,51,-99.99,,,-99.99,meteohub,2013-08-02 21:11:00,
2013-08-02 17:16:00,85.3,65.1,29.72,North,-999,-999.0,-999.0,51,-99.99,,,-99.99,meteohub,2013-08-02 21:16:00,
2013-08-02 17:22:00,85.5,65.3,29.72,North,-999,-999.0,-999.0,51,-99.99,,,-99.99,meteohub,2013-08-02 21:22:00,
2013-08-02 17:27:00,85.5,64.8,29.72,North,-999,-999.0,-999.0,50,-99.99,,,-99.99,meteohub,2013-08-02 21:27:00,
2013-08-02 17:32:00,85.3,65.1,29.72,North,-999,-999.0,-999.0,51,-99.99,,,-99.99,meteohub,2013-08-02 21:32:00,
2013-08-02 17:37:00,85.1,64.9,29.72,North,-999,-999.0,-999.0,51,-99.99,,,-99.99,meteohub,2013-08-02 21:37:00,
2013-08-02 17:42:00,84.9,65.3,29.72,North,-999,-999.0,-999.0,52,-99.99,,,-99.99,meteohub,2013-08-02 21:42:00,
2013-08-02 17:48:00,84.7,65.1,29.72,North,-999,-999.0,-999.0,52,-99.99,,,-99.99,meteohub,2013-08-02 21:48:00,
2013-08-02 17:53:00,84.7,65.1,29.72,North,-999,-999.0,-999.0,52,-99.99,,,-99.99,meteohub,2013-08-02 21:53:00,
2013-08-02 17:58:00,84.9,65.3,29.72,North,-999,-999.0,-999.0,52,-99.99,,,-99.99,meteohub,2013-08-02 21:58:00,
2013-08-02 18:03:00,84.7,65.1,29.72,North,-999,-999.0,-999.0,52,-99.99,,,-99.99,meteohub,2013-08-02 22:03:00,
2013-08-02 18:08:00,84.6,65.5,29.72,North,-999,-999.0,-999.0,53,-99.99,,,-99.99,meteohub,2013-08-02 22:08:00,
2013-08-02 18:13:00,84.0,65.1,29.72,North,-999,-999.0,-999.0,53,-99.99,,,-99.99,meteohub,2013-08-02 22:13:00,
2013-08-02 18:19:00,83.8,64.9,29.72,North,-999,-999.0,-999.0,53,-99.99,,,-99.99,meteohub,2013-08-02 22:19:00,
2013-08-02 18:24:00,83.8,64.9,29.72,North,-999,-999.0,-999.0,53,-99.99,,,-99.99,meteohub,2013-08-02 22:24:00,
2013-08-02 18:29:00,83.7,65.3,29.72,North,-999,-999.0,-999.0,54,-99.99,,,-99.99,meteohub,2013-08-02 22:29:00,
2013-08-02 18:34:00,83.3,65.5,29.72,North,-999,-999.0,-999.0,55,-99.99,,,-99.99,meteohub,2013-08-02 22:34:00,
2013-08-02 18:39:00,83.1,65.3,29.72,North,-999,-999.0,-999.0,55,-99.99,,,-99.99,meteohub,2013-08-02 22:39:00,
2013-08-02 18:44:00,83.1,64.8,29.72,North,-999,-999.0,-999.0,54,-99.99,,,-99.99,meteohub,2013-08-02 22:44:00,
2013-08-02 18:50:00,82.9,65.1,29.72,North,-999,-999.0,-999.0,55,-99.99,,,-99.99,meteohub,2013-08-02 22:50:00,
2013-08-02 18:55:00,82.8,64.9,29.72,North,-999,-999.0,-999.0,55,-99.99,,,-99.99,meteohub,2013-08-02 22:55:00,
2013-08-02 19:00:00,82.6,65.3,29.72,North,-999,-999.0,-999.0,56,-99.99,,,-99.99,meteohub,2013-08-02 23:00:00,
2013-08-02 19:05:00,82.4,65.7,29.72,North,-999,-999.0,-999.0,57,-99.99,,,-99.99,meteohub,2013-08-02 23:05:00,
2013-08-02 19:10:00,82.2,66.0,29.72,North,-999,-999.0,-999.0,58,-99.99,,,-99.99,meteohub,2013-08-02 23:10:00,
2013-08-02 19:15:00,82.2,65.5,29.72,North,-999,-999.0,-999.0,57,-99.99,,,-99.99,meteohub,2013-08-02 23:15:00,
2013-08-02 19:21:00,82.0,65.3,29.72,North,-999,-999.0,-999.0,57,-99.99,,,-99.99,meteohub,2013-08-02 23:21:00,
2013-08-02 19:26:00,82.0,65.3,29.72,North,-999,-999.0,-999.0,57,-99.99,,,-99.99,meteohub,2013-08-02 23:26:00,
2013-08-02 19:31:00,81.9,65.1,29.72,North,-999,-999.0,-999.0,57,-99.99,,,-99.99,meteohub,2013-08-02 23:31:00,
2013-08-02 19:36:00,81.7,65.5,29.72,North,-999,-999.0,-999.0,58,-99.99,,,-99.99,meteohub,2013-08-02 23:36:00,
2013-08-02 19:41:00,81.5,65.3,29.72,North,-999,-999.0,-999.0,58,-99.99,,,-99.99,meteohub,2013-08-02 23:41:00,
2013-08-02 19:46:00,81.3,65.7,29.72,North,-999,-999.0,-999.0,59,-99.99,,,-99.99,meteohub,2013-08-02 23:46:00,
2013-08-02 19:52:00,81.1,66.0,29.72,North,-999,-999.0,-999.0,60,-99.99,,,-99.99,meteohub,2013-08-02 23:52:00,
2013-08-02 19:57:00,80.8,66.6,29.72,North,-999,-999.0,-999.0,62,-99.99,,,-99.99,meteohub,2013-08-02 23:57:00,
2013-08-02 20:01:00,80.6,66.4,29.72,North,-999,-999.0,-999.0,62,-99.99,,,-99.99,meteohub,2013-08-03 00:01:00,
2013-08-02 20:07:00,80.2,66.6,29.72,North,-999,-999.0,-999.0,63,-99.99,,,-99.99,meteohub,2013-08-03 00:07:00,
2013-08-02 20:12:00,79.9,66.6,29.72,North,-999,-999.0,-999.0,64,-99.99,,,-99.99,meteohub,2013-08-03 00:12:00,
2013-08-02 20:17:00,79.7,66.4,29.72,North,-999,-999.0,-999.0,64,-99.99,,,-99.99,meteohub,2013-08-03 00:17:00,
2013-08-02 20:22:00,79.3,66.0,29.72,North,-999,-999.0,-999.0,64,-99.99,,,-99.99,meteohub,2013-08-03 00:22:00,
2013-08-02 20:27:00,79.0,66.2,29.72,North,-999,-999.0,-999.0,65,-99.99,,,-99.99,meteohub,2013-08-03 00:27:00,
2013-08-02 20:32:00,78.6,66.4,29.72,North,-999,-999.0,-999.0,66,-99.99,,,-99.99,meteohub,2013-08-03 00:32:00,
2013-08-02 20:37:00,78.6,66.4,29.72,North,-999,-999.0,-999.0,66,-99.99,,,-99.99,meteohub,2013-08-03 00:37:00,
2013-08-02 20:43:00,78.3,66.0,29.72,North,-999,-999.0,-999.0,66,-99.99,,,-99.99,meteohub,2013-08-03 00:43:00,
2013-08-02 20:48:00,78.1,66.2,29.72,North,-999,-999.0,-999.0,67,-99.99,,,-99.99,meteohub,2013-08-03 00:48:00,
2013-08-02 20:53:00,77.9,66.0,29.72,North,-999,-999.0,-999.0,67,-99.99,,,-99.99,meteohub,2013-08-03 00:53:00,
2013-08-02 20:58:00,77.5,66.2,29.72,North,-999,-999.0,-999.0,68,-99.99,,,-99.99,meteohub,2013-08-03 00:58:00,
2013-08-02 21:03:00,77.2,65.8,29.72,North,-999,-999.0,-999.0,68,-99.99,,,-99.99,meteohub,2013-08-03 01:03:00,
2013-08-02 21:08:00,76.8,65.8,29.72,North,-999,-999.0,-999.0,69,-99.99,,,-99.99,meteohub,2013-08-03 01:08:00,
2013-08-02 21:14:00,76.6,66.2,29.72,North,-999,-999.0,-999.0,70,-99.99,,,-99.99,meteohub,2013-08-03 01:14:00,
2013-08-02 21:19:00,76.5,66.0,29.72,North,-999,-999.0,-999.0,70,-99.99,,,-99.99,meteohub,2013-08-03 01:19:00,
2013-08-02 21:24:00,76.5,66.0,29.72,North,-999,-999.0,-999.0,70,-99.99,,,-99.99,meteohub,2013-08-03 01:24:00,
2013-08-02 21:29:00,76.3,66.2,29.72,North,-999,-999.0,-999.0,71,-99.99,,,-99.99,meteohub,2013-08-03 01:29:00,
2013-08-02 21:34:00,76.3,66.6,29.75,North,-999,-999.0,-999.0,72,-99.99,,,-99.99,meteohub,2013-08-03 01:34:00,
2013-08-02 21:39:00,76.1,66.7,29.75,North,-999,-999.0,-999.0,73,-99.99,,,-99.99,meteohub,2013-08-03 01:39:00,
2013-08-02 21:44:00,75.7,66.4,29.75,North,-999,-999.0,-999.0,73,-99.99,,,-99.99,meteohub,2013-08-03 01:44:00,
2013-08-02 21:50:00,75.6,66.7,29.75,North,-999,-999.0,-999.0,74,-99.99,,,-99.99,meteohub,2013-08-03 01:50:00,
2013-08-02 21:55:00,75.4,66.9,29.75,North,-999,-999.0,-999.0,75,-99.99,,,-99.99,meteohub,2013-08-03 01:55:00,
2013-08-02 22:00:00,75.4,66.9,29.75,North,-999,-999.0,-999.0,75,-99.99,,,-99.99,meteohub,2013-08-03 02:00:00,
2013-08-02 22:06:00,75.2,67.1,29.75,North,-999,-999.0,-999.0,76,-99.99,,,-99.99,meteohub,2013-08-03 02:06:00,
2013-08-02 22:11:00,75.0,67.3,29.75,North,-999,-999.0,-999.0,77,-99.99,,,-99.99,meteohub,2013-08-03 02:11:00,
2013-08-02 22:16:00,74.8,67.1,29.75,North,-999,-999.0,-999.0,77,-99.99,,,-99.99,meteohub,2013-08-03 02:16:00,
2013-08-02 22:21:00,74.8,67.1,29.75,North,-999,-999.0,-999.0,77,-99.99,,,-99.99,meteohub,2013-08-03 02:21:00,
2013-08-02 22:27:00,74.8,67.5,29.75,North,-999,-999.0,-999.0,78,-99.99,,,-99.99,meteohub,2013-08-03 02:27:00,
2013-08-02 22:32:00,74.7,67.3,29.75,North,-999,-999.0,-999.0,78,-99.99,,,-99.99,meteohub,2013-08-03 02:32:00,
2013-08-02 22:37:00,74.5,67.5,29.72,North,-999,-999.0,-999.0,79,-99.99,,,-99.99,meteohub,2013-08-03 02:37:00,
2013-08-02 22:42:00,74.5,67.5,29.72,North,-999,-999.0,-999.0,79,-99.99,,,-99.99,meteohub,2013-08-03 02:42:00,
2013-08-02 22:48:00,74.3,67.6,29.72,North,-999,-999.0,-999.0,80,-99.99,,,-99.99,meteohub,2013-08-03 02:48:00,
2013-08-02 22:53:00,74.3,67.6,29.72,North,-999,-999.0,-999.0,80,-99.99,,,-99.99,meteohub,2013-08-03 02:53:00,
2013-08-02 22:58:00,74.1,67.6,29.72,North,-999,-999.0,-999.0,80,-99.99,,,-99.99,meteohub,2013-08-03 02:58:00,
2013-08-02 23:03:00,73.9,67.5,29.72,North,-999,-999.0,-999.0,80,-99.99,,,-99.99,meteohub,2013-08-03 03:03:00,
2013-08-02 23:09:00,73.9,67.5,29.72,North,-999,-999.0,-999.0,80,-99.99,,,-99.99,meteohub,2013-08-03 03:09:00,
2013-08-02 23:14:00,73.8,67.6,29.72,North,-999,-999.0,-999.0,81,-99.99,,,-99.99,meteohub,2013-08-03 03:14:00,
2013-08-02 23:19:00,73.8,67.6,29.72,North,-999,-999.0,-999.0,81,-99.99,,,-99.99,meteohub,2013-08-03 03:19:00,
2013-08-02 23:24:00,73.8,67.6,29.72,North,-999,-999.0,-999.0,81,-99.99,,,-99.99,meteohub,2013-08-03 03:24:00,
2013-08-02 23:29:00,73.6,67.5,29.72,North,-999,-999.0,-999.0,81,-99.99,,,-99.99,meteohub,2013-08-03 03:29:00,
2013-08-02 23:34:00,73.6,67.8,29.72,North,-999,-999.0,-999.0,82,-99.99,,,-99.99,meteohub,2013-08-03 03:34:00,
2013-08-02 23:40:00,73.4,67.6,29.72,North,-999,-999.0,-999.0,82,-99.99,,,-99.99,meteohub,2013-08-03 03:40:00,
2013-08-02 23:45:00,73.4,67.6,29.72,North,-999,-999.0,-999.0,82,-99.99,,,-99.99,meteohub,2013-08-03 03:45:00,
2013-08-02 23:50:00,73.2,67.8,29.72,North,-999,-999.0,-999.0,83,-99.99,,,-99.99,meteohub,2013-08-03 03:50:00,
2013-08-02 23:55:00,73.2,67.8,29.72,North,-999,-999.0,-999.0,83,-99.99,,,-99.99,meteohub,2013-08-03 03:55:00,